Time;durP1;ratioP1;P1;durP2;ratioP2;P2;SDS_P1;SDS_P2;PMS_P1;PMS_P2;Temp;Humidity;BMP_temperature;BMP_pressure;BME280_temperature;BME280_humidity;BME280_pressure;Samples;Min_cycle;Max_cycle;Signal;HPM_P1;HPM_P2
2022/01/17 00:00:58;;;;;;;;;;;;;;;;;;5053394;28;19924;-74
2022/01/17 00:03:26;;;;;;;;;;;;;;;;;;5064592;28;20015;-76
2022/01/17 00:05:54;;;;;;;;;;;;;;;;;;5043396;28;20369;-76
2022/01/17 00:08:19;;;;;;;;;;;;;;;;;;5044565;28;19975;-77
2022/01/17 00:10:44;;;;;;;;;;;;;;;;;;5048949;28;19924;-76
2022/01/17 00:13:30;;;;;;;;;;;;;;;;;;5049441;28;20022;-75
2022/01/17 00:16:05;;;;;;;;;;;;;;;;;;5050747;28;19916;-78
2022/01/17 00:21:04;;;;;;;;;;;;;;;;;;5047591;28;19935;-76
2022/01/17 00:23:29;;;;;;;;;;;;;;;;;;5045636;28;20370;-76
2022/01/17 00:25:54;;;;;;;;;;;;;;;;;;5046923;28;19917;-76
2022/01/17 00:28:19;;;;;;;;;;;;;;;;;;5048071;28;19917;-77
2022/01/17 00:30:51;;;;;;;;;;;;;;;;;;5051118;28;19916;-77
2022/01/17 00:33:16;;;;;;;;;;;;;;;;;;5047939;28;19917;-76
2022/01/17 00:36:04;;;;;;;;;;;;;;;;;;5047817;28;20219;-76
2022/01/17 00:38:31;;;;;;;;;;;;;;;;;;5046475;28;19921;-77
2022/01/17 00:40:56;;;;;;;;;;;;;;;;;;5048284;28;19924;-77
2022/01/17 00:43:22;;;;;;;;;;;;;;;;;;5044188;28;19917;-79
2022/01/17 00:45:49;;;;;;;;;;;;;;;;;;5050530;28;19916;-79
2022/01/17 00:48:14;;;;;;;;;;;;;;;;;;5048844;28;19928;-78
2022/01/17 00:50:40;;;;;;;;;;;;;;;;;;5049811;28;19928;-77
2022/01/17 00:53:06;;;;;;;;;;;;;;;;;;5049254;28;20317;-78
2022/01/17 00:55:32;;;;;;;;;;;;;;;;;;5051341;28;20063;-77
2022/01/17 00:57:57;;;;;;;;;;;;;;;;;;5048125;28;20107;-78
2022/01/17 01:00:29;;;;;;;;;;;;;;;;;;5048986;28;20268;-77
2022/01/17 01:02:56;;;;;;;;;;;;;;;;;;5047647;28;19921;-78
2022/01/17 01:05:24;;;;;;;;;;;;;;;;;;5054954;28;19916;-76
2022/01/17 01:07:53;;;;;;;;;;;;;;;;;;5047733;28;19968;-76
2022/01/17 01:10:19;;;;;;;;;;;;;;;;;;5047266;28;19928;-76
2022/01/17 01:12:45;;;;;;;;;;;;;;;;;;5049845;28;19925;-75
2022/01/17 01:15:18;;;;;;;;;;;;;;;;;;5053173;28;19917;-75
2022/01/17 01:18:12;;;;;;;;;;;;;;;;;;5047013;28;19917;-76
2022/01/17 01:28:42;;;;;;;;;;;;;;;;;;5041780;28;19931;-76
2022/01/17 01:31:18;;;;;;;;;;;;;;;;;;5045632;28;19916;-75
2022/01/17 01:33:53;;;;;;;;;;;;;;;;;;5042925;28;20000;-75
2022/01/17 01:36:24;;;;;;;;;;;;;;;;;;5048952;28;19916;-75
2022/01/17 01:38:52;;;;;;;;;;;;;;;;;;5048001;28;20015;-75
2022/01/17 01:41:17;;;;;;;;;;;;;;;;;;5044273;28;19917;-74
2022/01/17 01:43:42;;;;;;;;;;;;;;;;;;5042273;28;19928;-75
2022/01/17 01:46:10;;;;;;;;;;;;;;;;;;5045981;28;20007;-75
2022/01/17 01:48:41;;;;;;;;;;;;;;;;;;5049573;28;20313;-75
2022/01/17 01:51:09;;;;;;;;;;;;;;;;;;5045228;28;19920;-75
2022/01/17 01:53:34;;;;;;;;;;;;;;;;;;5048059;28;19966;-76
2022/01/17 01:56:00;;;;;;;;;;;;;;;;;;5033982;28;20308;-76
2022/01/17 01:58:25;;;;;;;;;;;;;;;;;;5054342;28;19923;-76
2022/01/17 02:00:53;;;;;;;;;;;;;;;;;;5054235;28;20349;-76
2022/01/17 02:03:20;;;;;;;;;;;;;;;;;;5049462;28;19925;-76
2022/01/17 02:05:45;;;;;;;;;;;;;;;;;;5051098;28;19917;-75
2022/01/17 02:08:11;;;;;;;;;;;;;;;;;;5053355;28;19921;-76
2022/01/17 02:10:37;;;;;;;;;;;;;;;;;;5050853;28;19931;-76
2022/01/17 02:13:04;;;;;;;;;;;;;;;;;;5053378;28;20015;-76
2022/01/17 02:15:32;;;;;;;;;;;;;;;;;;5046570;28;19921;-75
2022/01/17 02:17:58;;;;;;;;;;;;;;;;;;5053330;28;19917;-75
2022/01/17 02:20:27;;;;;;;;;;;;;;;;;;5048254;28;19929;-75
2022/01/17 02:22:52;;;;;;;;;;;;;;;;;;5053479;28;20334;-74
2022/01/17 02:25:20;;;;;;;;;;;;;;;;;;5053871;28;20007;-75
2022/01/17 02:27:45;;;;;;;;;;;;;;;;;;5053952;28;19925;-74
2022/01/17 02:30:11;;;;;;;;;;;;;;;;;;5055796;28;20364;-74
2022/01/17 02:32:36;;;;;;;;;;;;;;;;;;5057636;28;20336;-75
2022/01/17 02:35:15;;;;;;;;;;;;;;;;;;5057323;28;19927;-75
2022/01/17 02:37:40;;;;;;;;;;;;;;;;;;5056962;28;19928;-76
2022/01/17 02:40:06;;;;;;;;;;;;;;;;;;5062466;28;19917;-76
2022/01/17 02:42:35;;;;;;;;;;;;;;;;;;5055982;28;20333;-77
2022/01/17 02:45:10;;;;;;;;;;;;;;;;;;5054531;28;19930;-78
2022/01/17 02:47:37;;;;;;;;;;;;;;;;;;5056058;28;19979;-76
2022/01/17 02:50:02;;;;;;;;;;;;;;;;;;5054214;28;20318;-74
2022/01/17 02:52:28;;;;;;;;;;;;;;;;;;5053387;28;19912;-75
2022/01/17 02:54:53;;;;;;;;;;;;;;;;;;5053882;28;19917;-74
2022/01/17 02:57:18;;;;;;;;;;;;;;;;;;5054133;28;19928;-74
2022/01/17 02:59:43;;;;;;;;;;;;;;;;;;5053936;28;20340;-74
2022/01/17 03:02:09;;;;;;;;;;;;;;;;;;5052468;28;19969;-75
2022/01/17 03:04:34;;;;;;;;;;;;;;;;;;5055961;28;19917;-75
2022/01/17 03:06:59;;;;;;;;;;;;;;;;;;5053244;28;19917;-75
2022/01/17 03:09:32;;;;;;;;;;;;;;;;;;5053006;28;19982;-74
2022/01/17 03:11:57;;;;;;;;;;;;;;;;;;5052740;28;20019;-75
2022/01/17 03:14:22;;;;;;;;;;;;;;;;;;5053365;28;19928;-74
2022/01/17 03:16:49;;;;;;;;;;;;;;;;;;5052871;28;19913;-75
2022/01/17 03:19:14;;;;;;;;;;;;;;;;;;5052623;28;19970;-75
2022/01/17 03:21:39;;;;;;;;;;;;;;;;;;5052839;28;20000;-76
2022/01/17 03:24:06;;;;;;;;;;;;;;;;;;5053207;28;20340;-75
2022/01/17 03:26:31;;;;;;;;;;;;;;;;;;5035230;28;19924;-75
2022/01/17 03:29:03;;;;;;;;;;;;;;;;;;5053476;28;19921;-75
2022/01/17 03:31:28;;;;;;;;;;;;;;;;;;5053902;28;20302;-76
2022/01/17 03:33:53;;;;;;;;;;;;;;;;;;5056815;28;19948;-75
2022/01/17 03:36:18;;;;;;;;;;;;;;;;;;5057280;28;19929;-76
2022/01/17 03:38:44;;;;;;;;;;;;;;;;;;5046076;28;19921;-76
2022/01/17 03:41:12;;;;;;;;;;;;;;;;;;5052931;28;19921;-75
2022/01/17 03:43:38;;;;;;;;;;;;;;;;;;5057101;28;19923;-75
2022/01/17 03:46:03;;;;;;;;;;;;;;;;;;5056737;28;19995;-75
2022/01/17 03:48:29;;;;;;;;;;;;;;;;;;5056015;28;19967;-75
2022/01/17 03:50:55;;;;;;;;;;;;;;;;;;5056714;28;19932;-75
2022/01/17 03:53:20;;;;;;;;;;;;;;;;;;5055696;28;19970;-74
2022/01/17 03:55:48;;;;;;;;;;;;;;;;;;5056601;28;19921;-75
2022/01/17 03:58:13;;;;;;;;;;;;;;;;;;5049264;28;19979;-75
2022/01/17 04:00:40;;;;;;;;;;;;;;;;;;5056624;28;20385;-75
2022/01/17 04:03:05;;;;;;;;;;;;;;;;;;5056664;28;19917;-75
2022/01/17 04:05:30;;;;;;;;;;;;;;;;;;5055585;28;20318;-74
2022/01/17 04:07:56;;;;;;;;;;;;;;;;;;5056283;28;19921;-75
2022/01/17 04:10:23;;;;;;;;;;;;;;;;;;5056121;28;19917;-75
2022/01/17 04:12:49;;;;;;;;;;;;;;;;;;5056173;28;19917;-75
2022/01/17 04:15:14;;;;;;;;;;;;;;;;;;5056282;28;19943;-75
2022/01/17 04:17:43;;;;;;;;;;;;;;;;;;5055348;28;20362;-75
2022/01/17 04:20:12;;;;;;;;;;;;;;;;;;5055551;28;20018;-75
2022/01/17 04:22:41;;;;;;;;;;;;;;;;;;5056398;28;20257;-75
2022/01/17 04:25:07;;;;;;;;;;;;;;;;;;5055322;28;19928;-75
2022/01/17 04:27:34;;;;;;;;;;;;;;;;;;5054194;28;19916;-75
2022/01/17 04:30:00;;;;;;;;;;;;;;;;;;5056283;28;19928;-76
2022/01/17 04:32:25;;;;;;;;;;;;;;;;;;5038333;28;20284;-75
2022/01/17 04:34:50;;;;;;;;;;;;;;;;;;5055012;28;19970;-75
2022/01/17 04:37:16;;;;;;;;;;;;;;;;;;5054992;28;19973;-74
2022/01/17 04:39:43;;;;;;;;;;;;;;;;;;5056039;28;19958;-75
2022/01/17 04:42:13;;;;;;;;;;;;;;;;;;5055629;28;19920;-74
2022/01/17 04:47:25;;;;;;;;;;;;;;;;;;5055787;28;19927;-75
2022/01/17 04:49:50;;;;;;;;;;;;;;;;;;5055133;28;19913;-76
2022/01/17 04:52:15;;;;;;;;;;;;;;;;;;5054701;28;20397;-75
2022/01/17 04:54:42;;;;;;;;;;;;;;;;;;5056021;28;19917;-75
2022/01/17 04:57:13;;;;;;;;;;;;;;;;;;5054368;28;20365;-74
2022/01/17 04:59:41;;;;;;;;;;;;;;;;;;5035968;28;19917;-74
2022/01/17 05:02:06;;;;;;;;;;;;;;;;;;5052608;28;19916;-75
2022/01/17 05:04:32;;;;;;;;;;;;;;;;;;5050340;28;20281;-75
2022/01/17 05:06:59;;;;;;;;;;;;;;;;;;5054828;28;19916;-75
2022/01/17 05:09:24;;;;;;;;;;;;;;;;;;5055360;28;19920;-75
2022/01/17 05:11:50;;;;;;;;;;;;;;;;;;5054701;28;20062;-75
2022/01/17 05:14:15;;;;;;;;;;;;;;;;;;5054656;28;20330;-74
2022/01/17 05:16:49;;;;;;;;;;;;;;;;;;5055308;28;20003;-74
2022/01/17 05:21:58;;;;;;;;;;;;;;;;;;5055578;28;19991;-75
2022/01/17 05:24:23;;;;;;;;;;;;;;;;;;5053978;28;19929;-73
2022/01/17 05:26:48;;;;;;;;;;;;;;;;;;5053864;28;20021;-75
2022/01/17 05:29:14;;;;;;;;;;;;;;;;;;5054856;28;19978;-75
2022/01/17 05:31:39;;;;;;;;;;;;;;;;;;5054962;28;19921;-75
2022/01/17 05:34:05;;;;;;;;;;;;;;;;;;5054020;28;19916;-75
2022/01/17 05:36:30;;;;;;;;;;;;;;;;;;5054755;28;19916;-74
2022/01/17 05:38:58;;;;;;;;;;;;;;;;;;5053700;28;19932;-75
2022/01/17 05:41:23;;;;;;;;;;;;;;;;;;5054737;28;19943;-75
2022/01/17 05:43:48;;;;;;;;;;;;;;;;;;5053496;28;19917;-75
2022/01/17 05:46:13;;;;;;;;;;;;;;;;;;5058707;28;19978;-75
2022/01/17 05:48:39;;;;;;;;;;;;;;;;;;5054649;28;20577;-75
2022/01/17 05:51:04;;;;;;;;;;;;;;;;;;5053602;28;19940;-75
2022/01/17 05:53:29;;;;;;;;;;;;;;;;;;5050278;28;19921;-75
2022/01/17 05:55:54;;;;;;;;;;;;;;;;;;5045754;28;19927;-75
2022/01/17 05:58:20;;;;;;;;;;;;;;;;;;5054611;28;19928;-75
2022/01/17 06:00:45;;;;;;;;;;;;;;;;;;5054098;28;19970;-75
2022/01/17 06:03:10;;;;;;;;;;;;;;;;;;5052865;28;19966;-74
2022/01/17 06:05:35;;;;;;;;;;;;;;;;;;5064431;28;19947;-75
2022/01/17 06:08:00;;;;;;;;;;;;;;;;;;5054281;28;19921;-75
2022/01/17 06:10:26;;;;;;;;;;;;;;;;;;5042556;28;19923;-75
2022/01/17 06:12:51;;;;;;;;;;;;;;;;;;5053409;28;19927;-75
2022/01/17 06:15:18;;;;;;;;;;;;;;;;;;5054022;28;19916;-75
2022/01/17 06:17:43;;;;;;;;;;;;;;;;;;5054033;28;19967;-75
2022/01/17 06:20:11;;;;;;;;;;;;;;;;;;5054215;28;19916;-75
2022/01/17 06:22:36;;;;;;;;;;;;;;;;;;5053740;28;20000;-75
2022/01/17 06:25:02;;;;;;;;;;;;;;;;;;5054157;28;19948;-75
2022/01/17 06:27:27;;;;;;;;;;;;;;;;;;5054089;28;19917;-75
2022/01/17 06:29:52;;;;;;;;;;;;;;;;;;5054248;28;19913;-74
2022/01/17 06:32:17;;;;;;;;;;;;;;;;;;5058837;28;19928;-75
2022/01/17 06:34:43;;;;;;;;;;;;;;;;;;5053845;28;19916;-75
2022/01/17 06:37:08;;;;;;;;;;;;;;;;;;5053145;28;19916;-75
2022/01/17 06:39:34;;;;;;;;;;;;;;;;;;5054150;28;20250;-75
2022/01/17 06:41:59;;;;;;;;;;;;;;;;;;5053431;28;20266;-76
2022/01/17 06:44:24;;;;;;;;;;;;;;;;;;5053359;28;19942;-76
2022/01/17 06:46:52;;;;;;;;;;;;;;;;;;5053758;28;19982;-76
2022/01/17 06:49:19;;;;;;;;;;;;;;;;;;5036480;28;20269;-75
2022/01/17 06:51:44;;;;;;;;;;;;;;;;;;5053784;28;19917;-75
2022/01/17 06:54:10;;;;;;;;;;;;;;;;;;5054091;28;19928;-75
2022/01/17 06:56:43;;;;;;;;;;;;;;;;;;5053989;28;19919;-76
2022/01/17 06:59:09;;;;;;;;;;;;;;;;;;5054133;28;19991;-75
2022/01/17 07:01:38;;;;;;;;;;;;;;;;;;5053477;28;19955;-76
2022/01/17 07:04:03;;;;;;;;;;;;;;;;;;5053854;28;19917;-75
2022/01/17 07:06:28;;;;;;;;;;;;;;;;;;5062607;28;19994;-75
2022/01/17 07:08:56;;;;;;;;;;;;;;;;;;5056475;28;19921;-75
2022/01/17 07:11:21;;;;;;;;;;;;;;;;;;5056270;28;20245;-75
2022/01/17 07:13:49;;;;;;;;;;;;;;;;;;5057760;28;19927;-76
2022/01/17 07:16:14;;;;;;;;;;;;;;;;;;5057073;28;19932;-75
2022/01/17 07:18:39;;;;;;;;;;;;;;;;;;5057394;28;20018;-75
2022/01/17 07:21:04;;;;;;;;;;;;;;;;;;5056840;28;20082;-75
2022/01/17 07:23:30;;;;;;;;;;;;;;;;;;5036455;28;19963;-75
2022/01/17 07:25:55;;;;;;;;;;;;;;;;;;5056173;28;19916;-76
2022/01/17 07:28:20;;;;;;;;;;;;;;;;;;5056670;28;20325;-75
2022/01/17 07:30:45;;;;;;;;;;;;;;;;;;5057388;28;20254;-74
2022/01/17 07:33:11;;;;;;;;;;;;;;;;;;5057521;28;19970;-75
2022/01/17 07:35:38;;;;;;;;;;;;;;;;;;5055737;28;19928;-75
2022/01/17 07:38:04;;;;;;;;;;;;;;;;;;5052451;28;19928;-75
2022/01/17 07:40:29;;;;;;;;;;;;;;;;;;5051810;28;19920;-75
2022/01/17 07:42:54;;;;;;;;;;;;;;;;;;5057104;28;19917;-75
2022/01/17 07:45:20;;;;;;;;;;;;;;;;;;5057137;28;19920;-75
2022/01/17 07:48:08;;;;;;;;;;;;;;;;;;5035924;28;19921;-75
2022/01/17 07:50:31;;;;;;;;;;;;;;;;;;5050878;28;20365;-76
2022/01/17 07:52:56;;;;;;;;;;;;;;;;;;5056835;28;20008;-76
2022/01/17 07:55:21;;;;;;;;;;;;;;;;;;5050680;28;19921;-75
2022/01/17 07:57:47;;;;;;;;;;;;;;;;;;5049643;28;19913;-75
2022/01/17 08:00:16;;;;;;;;;;;;;;;;;;5054648;28;19969;-75
2022/01/17 08:02:43;;;;;;;;;;;;;;;;;;5067830;28;19969;-76
2022/01/17 08:05:14;;;;;;;;;;;;;;;;;;5069174;28;19913;-75
2022/01/17 08:07:39;;;;;;;;;;;;;;;;;;5059074;28;19939;-76
2022/01/17 08:10:07;;;;;;;;;;;;;;;;;;5056750;28;19913;-75
2022/01/17 08:12:33;;;;;;;;;;;;;;;;;;5056547;28;19916;-75
2022/01/17 08:15:01;;;;;;;;;;;;;;;;;;5056393;28;20350;-75
2022/01/17 08:17:27;;;;;;;;;;;;;;;;;;5056235;28;20003;-75
2022/01/17 08:19:52;;;;;;;;;;;;;;;;;;5056667;28;19948;-75
2022/01/17 08:22:17;;;;;;;;;;;;;;;;;;5055708;28;19948;-75
2022/01/17 08:24:47;;;;;;;;;;;;;;;;;;5054532;28;20253;-75
2022/01/17 08:27:12;;;;;;;;;;;;;;;;;;5055142;28;19924;-75
2022/01/17 08:29:37;;;;;;;;;;;;;;;;;;5056441;28;19917;-76
2022/01/17 08:32:05;;;;;;;;;;;;;;;;;;5056296;28;19935;-75
2022/01/17 08:34:30;;;;;;;;;;;;;;;;;;5055713;28;19920;-74
2022/01/17 08:36:57;;;;;;;;;;;;;;;;;;5055927;28;19928;-76
2022/01/17 08:39:24;;;;;;;;;;;;;;;;;;5055905;28;19963;-75
2022/01/17 08:41:49;;;;;;;;;;;;;;;;;;5056156;28;20061;-75
2022/01/17 08:44:16;;;;;;;;;;;;;;;;;;5055971;28;20384;-75
2022/01/17 08:46:41;;;;;;;;;;;;;;;;;;5054701;28;19917;-74
2022/01/17 08:49:06;;;;;;;;;;;;;;;;;;5054778;28;20270;-75
2022/01/17 08:51:31;;;;;;;;;;;;;;;;;;5051300;28;19913;-76
2022/01/17 08:53:57;;;;;;;;;;;;;;;;;;5045926;28;19928;-76
2022/01/17 08:56:22;;;;;;;;;;;;;;;;;;5054836;28;19975;-76
2022/01/17 08:58:47;;;;;;;;;;;;;;;;;;5055323;28;19923;-77
2022/01/17 09:01:13;;;;;;;;;;;;;;;;;;5055486;28;19924;-76
2022/01/17 09:03:39;;;;;;;;;;;;;;;;;;5055477;28;19923;-76
2022/01/17 09:06:05;;;;;;;;;;;;;;;;;;5058622;28;19995;-75
2022/01/17 09:08:32;;;;;;;;;;;;;;;;;;5054574;28;19928;-75
2022/01/17 09:10:58;;;;;;;;;;;;;;;;;;5054480;28;19917;-75
2022/01/17 09:13:23;;;;;;;;;;;;;;;;;;5055238;28;20384;-75
2022/01/17 09:15:49;;;;;;;;;;;;;;;;;;5055104;28;19927;-75
2022/01/17 09:18:19;;;;;;;;;;;;;;;;;;5055357;28;20312;-75
2022/01/17 09:20:44;;;;;;;;;;;;;;;;;;5054774;28;19971;-75
2022/01/17 09:23:09;;;;;;;;;;;;;;;;;;5054987;28;19917;-75
2022/01/17 09:25:35;;;;;;;;;;;;;;;;;;5054869;28;19929;-75
2022/01/17 09:28:00;;;;;;;;;;;;;;;;;;5054764;28;20334;-75
2022/01/17 09:30:28;;;;;;;;;;;;;;;;;;5054653;28;20054;-75
2022/01/17 09:32:53;;;;;;;;;;;;;;;;;;5054655;28;19927;-74
2022/01/17 09:35:19;;;;;;;;;;;;;;;;;;5054888;28;19916;-74
2022/01/17 09:37:44;;;;;;;;;;;;;;;;;;5054716;28;20007;-75
2022/01/17 09:40:09;;;;;;;;;;;;;;;;;;5053630;28;19974;-75
2022/01/17 09:42:36;;;;;;;;;;;;;;;;;;5053209;28;20003;-75
2022/01/17 09:45:06;;;;;;;;;;;;;;;;;;5053499;28;20004;-75
2022/01/17 09:47:34;;;;;;;;;;;;;;;;;;5055041;28;19917;-76
2022/01/17 09:50:06;;;;;;;;;;;;;;;;;;5054667;28;19917;-75
2022/01/17 09:54:59;;;;;;;;;;;;;;;;;;5045696;28;19933;-74
2022/01/17 09:57:25;;;;;;;;;;;;;;;;;;5049050;28;19928;-75
2022/01/17 09:59:50;;;;;;;;;;;;;;;;;;5054138;28;19920;-74
2022/01/17 10:02:17;;;;;;;;;;;;;;;;;;5036187;28;19924;-74
2022/01/17 10:04:42;;;;;;;;;;;;;;;;;;5055077;28;20335;-74
2022/01/17 10:07:07;;;;;;;;;;;;;;;;;;5054479;28;19928;-75
2022/01/17 10:09:34;;;;;;;;;;;;;;;;;;5053450;28;19920;-75
2022/01/17 10:12:17;;;;;;;;;;;;;;;;;;5054066;28;19946;-74
2022/01/17 10:14:56;;;;;;;;;;;;;;;;;;5038772;28;19928;-75
2022/01/17 10:17:22;;;;;;;;;;;;;;;;;;5053542;28;19974;-74
2022/01/17 10:19:57;;;;;;;;;;;;;;;;;;5054120;28;20272;-75
2022/01/17 10:22:32;;;;;;;;;;;;;;;;;;5053629;28;19913;-75
2022/01/17 10:25:20;;;;;;;;;;;;;;;;;;5054073;28;19917;-77
2022/01/17 10:30:31;;;;;;;;;;;;;;;;;;5054385;28;19923;-78
2022/01/17 10:35:40;;;;;;;;;;;;;;;;;;5052680;28;19931;-76
2022/01/17 10:38:14;;;;;;;;;;;;;;;;;;5052853;28;19917;-77
2022/01/17 10:40:40;;;;;;;;;;;;;;;;;;5053842;28;20365;-77
2022/01/17 10:43:07;;;;;;;;;;;;;;;;;;5057120;28;19917;-77
2022/01/17 10:45:40;;;;;;;;;;;;;;;;;;5056888;28;20342;-77
2022/01/17 10:48:07;;;;;;;;;;;;;;;;;;5059287;28;20346;-79
2022/01/17 10:53:18;;;;;;;;;;;;;;;;;;5059673;28;20061;-83
2022/01/17 10:55:48;;;;;;;;;;;;;;;;;;5047502;28;19954;-82
2022/01/17 10:58:23;;;;;;;;;;;;;;;;;;5056886;28;20357;-81
2022/01/17 11:00:49;;;;;;;;;;;;;;;;;;5072698;28;20023;-82
2022/01/17 11:03:18;;;;;;;;;;;;;;;;;;5060516;28;20021;-81
2022/01/17 11:05:53;;;;;;;;;;;;;;;;;;5058880;28;20326;-83
2022/01/17 11:08:22;;;;;;;;;;;;;;;;;;5039312;28;19925;-82
2022/01/17 11:10:50;;;;;;;;;;;;;;;;;;5053698;28;19917;-78
2022/01/17 11:13:16;;;;;;;;;;;;;;;;;;5055969;28;20374;-80
2022/01/17 11:15:44;;;;;;;;;;;;;;;;;;5051010;28;20000;-81
2022/01/17 11:18:16;;;;;;;;;;;;;;;;;;5056614;28;20354;-80
2022/01/17 11:20:41;;;;;;;;;;;;;;;;;;5056731;28;19979;-80
2022/01/17 11:23:14;;;;;;;;;;;;;;;;;;5055609;28;19916;-78
2022/01/17 11:25:43;;;;;;;;;;;;;;;;;;5039375;28;19996;-83
2022/01/17 11:28:09;;;;;;;;;;;;;;;;;;5046297;28;19917;-81
2022/01/17 11:30:35;;;;;;;;;;;;;;;;;;5050137;28;20231;-85
2022/01/17 11:33:04;;;;;;;;;;;;;;;;;;5052806;28;19921;-88
2022/01/17 11:35:30;;;;;;;;;;;;;;;;;;5058070;28;20402;-90
2022/01/17 11:37:56;;;;;;;;;;;;;;;;;;5058399;28;19952;-80
2022/01/17 11:40:25;;;;;;;;;;;;;;;;;;5056268;28;20238;-82
2022/01/17 11:42:56;;;;;;;;;;;;;;;;;;5056182;28;19988;-83
2022/01/17 11:45:23;;;;;;;;;;;;;;;;;;5057081;28;19920;-83
2022/01/17 11:47:53;;;;;;;;;;;;;;;;;;5049712;28;19982;-81
2022/01/17 11:50:31;;;;;;;;;;;;;;;;;;5037242;28;19913;-83
2022/01/17 11:53:00;;;;;;;;;;;;;;;;;;5047621;28;19917;-84
2022/01/17 11:55:42;;;;;;;;;;;;;;;;;;5056126;28;20391;-86
2022/01/17 11:58:22;;;;;;;;;;;;;;;;;;5057576;28;19920;-84
2022/01/17 12:00:57;;;;;;;;;;;;;;;;;;5056728;28;19917;-85
2022/01/17 12:03:22;;;;;;;;;;;;;;;;;;5056650;28;19925;-84
2022/01/17 12:05:47;;;;;;;;;;;;;;;;;;5072799;28;20296;-83
2022/01/17 12:08:23;;;;;;;;;;;;;;;;;;5055427;28;19928;-83
2022/01/17 12:10:51;;;;;;;;;;;;;;;;;;5054119;28;20003;-83
2022/01/17 12:13:22;;;;;;;;;;;;;;;;;;5055690;28;20426;-91
2022/01/17 12:15:57;;;;;;;;;;;;;;;;;;5061789;28;19921;-85
2022/01/17 12:18:36;;;;;;;;;;;;;;;;;;5054728;28;19975;-77
2022/01/17 12:21:16;;;;;;;;;;;;;;;;;;5047514;28;20250;-75
2022/01/17 12:23:41;;;;;;;;;;;;;;;;;;5050804;28;19921;-76
2022/01/17 12:26:26;;;;;;;;;;;;;;;;;;5054890;28;20364;-77
2022/01/17 12:28:52;;;;;;;;;;;;;;;;;;5055681;28;19959;-78
2022/01/17 12:31:35;;;;;;;;;;;;;;;;;;5055253;28;19971;-76
2022/01/17 12:34:20;;;;;;;;;;;;;;;;;;5045357;28;20337;-80
2022/01/17 12:36:47;;;;;;;;;;;;;;;;;;5055742;28;19974;-79
2022/01/17 12:39:14;;;;;;;;;;;;;;;;;;5055840;28;19995;-77
2022/01/17 12:41:41;;;;;;;;;;;;;;;;;;5055900;28;19967;-79
2022/01/17 12:44:15;;;;;;;;;;;;;;;;;;5054476;28;20432;-79
2022/01/17 12:46:46;;;;;;;;;;;;;;;;;;5053991;28;20278;-79
2022/01/17 12:49:12;;;;;;;;;;;;;;;;;;5055267;28;19917;-79
2022/01/17 12:51:44;;;;;;;;;;;;;;;;;;5052672;28;19927;-78
2022/01/17 12:54:14;;;;;;;;;;;;;;;;;;5054194;28;19924;-79
2022/01/17 12:56:42;;;;;;;;;;;;;;;;;;5055607;28;19966;-78
2022/01/17 12:59:15;;;;;;;;;;;;;;;;;;5047859;28;19921;-80
2022/01/17 13:01:44;;;;;;;;;;;;;;;;;;5051082;28;19963;-79
2022/01/17 13:04:11;;;;;;;;;;;;;;;;;;5051446;28;20304;-82
2022/01/17 13:06:37;;;;;;;;;;;;;;;;;;5050906;28;19913;-79
2022/01/17 13:09:07;;;;;;;;;;;;;;;;;;5050380;28;19917;-78
2022/01/17 13:11:33;;;;;;;;;;;;;;;;;;5055153;28;20253;-79
2022/01/17 13:14:01;;;;;;;;;;;;;;;;;;5054847;28;19982;-78
2022/01/17 13:16:26;;;;;;;;;;;;;;;;;;5049708;28;19920;-76
2022/01/17 13:18:54;;;;;;;;;;;;;;;;;;5050366;28;19913;-80
2022/01/17 13:21:19;;;;;;;;;;;;;;;;;;5051363;28;19916;-77
2022/01/17 13:23:56;;;;;;;;;;;;;;;;;;5050557;28;20365;-79
2022/01/17 13:26:24;;;;;;;;;;;;;;;;;;5050990;28;19924;-80
2022/01/17 13:28:50;;;;;;;;;;;;;;;;;;5036716;28;19924;-80
2022/01/17 13:31:28;;;;;;;;;;;;;;;;;;5053252;28;19917;-82
2022/01/17 13:33:56;;;;;;;;;;;;;;;;;;5037062;28;19912;-80
2022/01/17 13:36:26;;;;;;;;;;;;;;;;;;5050320;28;19917;-81
2022/01/17 13:39:03;;;;;;;;;;;;;;;;;;5030445;28;20524;-81
2022/01/17 13:41:29;;;;;;;;;;;;;;;;;;5054851;28;19917;-81
2022/01/17 13:43:54;;;;;;;;;;;;;;;;;;5052947;28;19917;-80
2022/01/17 13:46:19;;;;;;;;;;;;;;;;;;5046426;28;19920;-79
2022/01/17 13:48:46;;;;;;;;;;;;;;;;;;5044687;28;19928;-78
2022/01/17 13:51:14;;;;;;;;;;;;;;;;;;5031053;28;19975;-78
2022/01/17 13:53:45;;;;;;;;;;;;;;;;;;5047227;28;19921;-80
2022/01/17 13:56:11;;;;;;;;;;;;;;;;;;5050128;28;19921;-77
2022/01/17 13:58:41;;;;;;;;;;;;;;;;;;5036408;28;19913;-78
2022/01/17 14:01:10;;;;;;;;;;;;;;;;;;5057122;28;19916;-78
2022/01/17 14:04:04;;;;;;;;;;;;;;;;;;5052397;28;19920;-78
2022/01/17 14:06:29;;;;;;;;;;;;;;;;;;5053311;28;20338;-80
2022/01/17 14:09:04;;;;;;;;;;;;;;;;;;5052373;28;19982;-78
2022/01/17 14:11:29;;;;;;;;;;;;;;;;;;5052764;28;19971;-79
2022/01/17 14:13:59;;;;;;;;;;;;;;;;;;5036949;28;19920;-78
2022/01/17 14:16:33;;;;;;;;;;;;;;;;;;5058978;28;19971;-80
2022/01/17 14:19:11;;;;;;;;;;;;;;;;;;5054923;28;20277;-79
2022/01/17 14:21:37;;;;;;;;;;;;;;;;;;5051843;28;20249;-78
2022/01/17 14:24:05;;;;;;;;;;;;;;;;;;5054429;28;19995;-78
2022/01/17 14:26:30;;;;;;;;;;;;;;;;;;5053247;28;19939;-79
2022/01/17 14:28:55;;;;;;;;;;;;;;;;;;5053298;28;20348;-77
2022/01/17 14:31:21;;;;;;;;;;;;;;;;;;5062570;28;20329;-78
2022/01/17 14:33:51;;;;;;;;;;;;;;;;;;5052130;28;19917;-79
2022/01/17 14:36:17;;;;;;;;;;;;;;;;;;5053110;28;19916;-78
2022/01/17 14:38:50;;;;;;;;;;;;;;;;;;5052909;28;20004;-80
2022/01/17 14:41:17;;;;;;;;;;;;;;;;;;5046712;28;20000;-77
2022/01/17 14:43:42;;;;;;;;;;;;;;;;;;5053331;28;20261;-78
2022/01/17 14:46:07;;;;;;;;;;;;;;;;;;5048369;28;19917;-83
2022/01/17 14:48:33;;;;;;;;;;;;;;;;;;5035745;28;20293;-81
2022/01/17 14:51:11;;;;;;;;;;;;;;;;;;5049950;28;19917;-77
2022/01/17 14:53:36;;;;;;;;;;;;;;;;;;5043727;28;19980;-78
2022/01/17 15:01:39;;;;;;;;;;;;;;;;;;5045447;28;19943;-79
2022/01/17 15:04:05;;;;;;;;;;;;;;;;;;5052268;28;19916;-77
2022/01/17 15:06:32;;;;;;;;;;;;;;;;;;5053239;28;20608;-76
2022/01/17 15:08:57;;;;;;;;;;;;;;;;;;5047776;28;19928;-77
2022/01/17 15:11:22;;;;;;;;;;;;;;;;;;5053111;28;19913;-78
2022/01/17 15:13:48;;;;;;;;;;;;;;;;;;5052462;28;19917;-79
2022/01/17 15:16:13;;;;;;;;;;;;;;;;;;5050742;28;19932;-81
2022/01/17 15:18:46;;;;;;;;;;;;;;;;;;5030859;28;19917;-83
2022/01/17 15:21:11;;;;;;;;;;;;;;;;;;5046262;28;19971;-77
2022/01/17 15:23:37;;;;;;;;;;;;;;;;;;5051764;28;19917;-77
2022/01/17 15:26:04;;;;;;;;;;;;;;;;;;5051652;28;19928;-77
2022/01/17 15:28:29;;;;;;;;;;;;;;;;;;5054396;28;19964;-77
2022/01/17 15:30:55;;;;;;;;;;;;;;;;;;5056189;28;20377;-77
2022/01/17 15:33:24;;;;;;;;;;;;;;;;;;5055385;28;19978;-77
2022/01/17 15:35:49;;;;;;;;;;;;;;;;;;5036085;28;19921;-76
2022/01/17 15:38:15;;;;;;;;;;;;;;;;;;5054986;28;20354;-77
2022/01/17 15:40:42;;;;;;;;;;;;;;;;;;5056028;28;19981;-75
2022/01/17 15:43:09;;;;;;;;;;;;;;;;;;5056625;28;19925;-76
2022/01/17 15:45:34;;;;;;;;;;;;;;;;;;5056064;28;19916;-76
2022/01/17 15:47:59;;;;;;;;;;;;;;;;;;5055881;28;19921;-76
2022/01/17 15:50:25;;;;;;;;;;;;;;;;;;5055324;28;19924;-76
2022/01/17 15:52:50;;;;;;;;;;;;;;;;;;5053950;28;19932;-84
2022/01/17 15:55:15;;;;;;;;;;;;;;;;;;5055566;28;19927;-77
2022/01/17 15:57:42;;;;;;;;;;;;;;;;;;5055060;28;19913;-77
2022/01/17 16:00:08;;;;;;;;;;;;;;;;;;5049115;28;19917;-78
2022/01/17 16:02:33;;;;;;;;;;;;;;;;;;5055589;28;20508;-78
2022/01/17 16:04:58;;;;;;;;;;;;;;;;;;5055351;28;19913;-78
2022/01/17 16:07:23;;;;;;;;;;;;;;;;;;5055794;28;19913;-78
2022/01/17 16:09:49;;;;;;;;;;;;;;;;;;5056208;28;19921;-78
2022/01/17 16:12:14;;;;;;;;;;;;;;;;;;5056514;28;19970;-78
2022/01/17 16:14:39;;;;;;;;;;;;;;;;;;5055761;28;19974;-78
2022/01/17 16:17:08;;;;;;;;;;;;;;;;;;5055572;28;19927;-78
2022/01/17 16:19:33;;;;;;;;;;;;;;;;;;5056800;28;20015;-77
2022/01/17 16:21:58;;;;;;;;;;;;;;;;;;5056655;28;19999;-79
2022/01/17 16:24:23;;;;;;;;;;;;;;;;;;5056414;28;19913;-78
2022/01/17 16:26:54;;;;;;;;;;;;;;;;;;5056620;28;19917;-79
2022/01/17 16:29:19;;;;;;;;;;;;;;;;;;5056444;28;19916;-79
2022/01/17 16:31:44;;;;;;;;;;;;;;;;;;5055693;28;19916;-80
2022/01/17 16:34:12;;;;;;;;;;;;;;;;;;5055672;28;19921;-80
2022/01/17 16:36:37;;;;;;;;;;;;;;;;;;5055974;28;19959;-79
2022/01/17 16:39:02;;;;;;;;;;;;;;;;;;5037023;28;19952;-79
2022/01/17 16:41:28;;;;;;;;;;;;;;;;;;5042263;28;20025;-77
2022/01/17 16:43:55;;;;;;;;;;;;;;;;;;5054962;28;19916;-80
2022/01/17 16:46:23;;;;;;;;;;;;;;;;;;5055578;28;20011;-78
2022/01/17 16:48:50;;;;;;;;;;;;;;;;;;5052687;28;19916;-77
2022/01/17 16:51:20;;;;;;;;;;;;;;;;;;5049922;28;20274;-78
2022/01/17 16:53:45;;;;;;;;;;;;;;;;;;5044913;28;20294;-79
2022/01/17 16:56:11;;;;;;;;;;;;;;;;;;5050228;28;19964;-78
2022/01/17 16:58:36;;;;;;;;;;;;;;;;;;5047714;28;19974;-79
2022/01/17 17:01:09;;;;;;;;;;;;;;;;;;5050328;28;19927;-79
2022/01/17 17:03:37;;;;;;;;;;;;;;;;;;5055586;28;20003;-78
2022/01/17 17:06:02;;;;;;;;;;;;;;;;;;5054589;28;20019;-78
2022/01/17 17:08:28;;;;;;;;;;;;;;;;;;5051306;28;19923;-77
2022/01/17 17:10:55;;;;;;;;;;;;;;;;;;5054412;28;19967;-78
2022/01/17 17:13:20;;;;;;;;;;;;;;;;;;5053789;28;19921;-78
2022/01/17 17:15:46;;;;;;;;;;;;;;;;;;5039994;28;19928;-77
2022/01/17 17:18:18;;;;;;;;;;;;;;;;;;5044806;28;19978;-78
2022/01/17 17:20:47;;;;;;;;;;;;;;;;;;5045801;28;19917;-78